Time;durP1;ratioP1;P1;durP2;ratioP2;P2;SDS_P1;SDS_P2;PMS_P1;PMS_P2;Temp;Humidity;BMP_temperature;BMP_pressure;BME280_temperature;BME280_humidity;BME280_pressure;Samples;Min_cycle;Max_cycle;Signal;HPM_P1;HPM_P2
2023/09/22 00:00:43;;;;;;;8.17;4.73;;;;;;;-141.97;66.95;47519.06;4983159;28;20250;-84
2023/09/22 00:03:08;;;;;;;10.13;5.10;;;;;;;-141.97;66.92;47490.25;4992617;28;20709;-84
2023/09/22 00:05:35;;;;;;;9.87;4.80;;;;;;;-141.97;67.26;47715.13;4993155;28;20283;-84
2023/09/22 00:08:01;;;;;;;7.60;4.73;;;;;;;-141.97;67.66;47519.06;5026324;28;20306;-86
2023/09/22 00:10:26;;;;;;;7.10;5.07;;;;;;;-141.97;68.24;47584.44;4993414;28;20203;-84
2023/09/22 00:12:54;;;;;;;9.67;5.17;;;;;;;-141.97;67.63;47676.69;4993781;28;20234;-85
2023/09/22 00:15:20;;;;;;;8.80;5.30;;;;;;;-141.97;67.45;47419.13;4992972;28;20226;-84
2023/09/22 00:17:45;;;;;;;6.57;4.80;;;;;;;-141.97;67.61;47692.06;4994091;28;20170;-84
2023/09/22 00:20:14;;;;;;;7.73;5.20;;;;;;;-141.97;67.81;47651.69;4992883;28;20270;-84
2023/09/22 00:22:40;;;;;;;13.17;5.40;;;;;;;-141.97;67.96;47480.63;5025552;28;20171;-85
2023/09/22 00:25:05;;;;;;;9.27;5.03;;;;;;;-141.97;67.79;47570.97;4993069;28;20596;-84
2023/09/22 00:27:31;;;;;;;10.33;5.10;;;;;;;-141.97;68.72;47701.69;4992985;28;20214;-84
2023/09/22 00:29:57;;;;;;;8.40;4.90;;;;;;;-141.97;68.88;47401.84;5014826;28;20186;-84
2023/09/22 00:32:22;;;;;;;8.47;4.53;;;;;;;-141.97;68.76;47695.91;5032023;28;20201;-84
2023/09/22 00:34:48;;;;;;;9.53;5.07;;;;;;;-141.97;67.99;47674.78;4996235;28;20273;-85
2023/09/22 00:37:13;;;;;;;12.57;4.90;;;;;;;-141.97;68.79;47403.75;5011449;28;20251;-85
2023/09/22 00:39:39;;;;;;;7.93;4.63;;;;;;;-141.97;68.25;47538.28;5026596;28;20179;-85
2023/09/22 00:42:09;;;;;;;6.80;4.60;;;;;;;-141.97;68.79;47574.81;4992199;28;20195;-85
2023/09/22 00:44:35;;;;;;;8.53;5.43;;;;;;;-141.97;69.29;47401.84;4991991;28;20603;-85
2023/09/22 00:47:02;;;;;;;10.93;5.30;;;;;;;-141.97;69.40;47524.84;4992939;28;20289;-85
2023/09/22 00:49:29;;;;;;;10.03;5.27;;;;;;;-141.97;69.43;47449.88;4993513;28;20255;-85
2023/09/22 00:51:56;;;;;;;10.00;5.17;;;;;;;-141.97;69.43;47569.06;4993664;28;20609;-85
2023/09/22 00:54:23;;;;;;;9.90;5.10;;;;;;;-141.97;69.67;47480.63;4993268;28;20195;-84
2023/09/22 00:56:48;;;;;;;8.40;5.23;;;;;;;-141.97;69.66;47672.84;4993385;28;20210;-85
2023/09/22 00:59:15;;;;;;;8.93;4.97;;;;;;;-141.97;69.76;47555.59;4983780;28;20286;-85
2023/09/22 01:01:44;;;;;;;7.47;4.47;;;;;;;-141.97;69.75;47584.44;4992033;28;20234;-85
2023/09/22 01:04:11;;;;;;;13.43;5.33;;;;;;;-141.97;69.40;47747.81;4993736;28;20190;-85
2023/09/22 01:06:37;;;;;;;11.13;5.60;;;;;;;-141.97;69.63;47547.91;4993339;28;20510;-85
2023/09/22 01:09:05;;;;;;;10.50;5.27;;;;;;;-141.97;69.70;47415.28;4993246;28;20223;-85
2023/09/22 01:11:33;;;;;;;11.77;5.10;;;;;;;-141.97;69.80;47578.66;4992759;28;20202;-85
2023/09/22 01:13:58;;;;;;;9.30;5.43;;;;;;;-141.97;70.13;47396.06;4991214;28;20198;-84
2023/09/22 01:16:24;;;;;;;9.23;5.20;;;;;;;-141.97;69.91;47407.59;4993350;28;20647;-85
2023/09/22 01:18:49;;;;;;;11.47;5.20;;;;;;;-141.97;70.26;47557.53;4991969;28;20190;-85
2023/09/22 01:21:14;;;;;;;9.17;5.67;;;;;;;-141.97;70.44;47526.75;5024244;28;20552;-85
2023/09/22 01:23:41;;;;;;;11.37;5.27;;;;;;;-141.97;70.67;47732.44;4993272;28;20237;-85
2023/09/22 01:26:07;;;;;;;9.83;5.97;;;;;;;-141.97;70.64;47711.28;4992657;28;20735;-84
2023/09/22 01:28:32;;;;;;;11.33;5.73;;;;;;;-141.97;71.11;47434.50;5006642;28;20215;-84
2023/09/22 01:30:59;;;;;;;15.60;6.20;;;;;;;-141.97;71.11;47411.44;5020561;28;20178;-85
2023/09/22 01:33:24;;;;;;;7.30;4.80;;;;;;;-141.97;71.50;47386.47;5011460;28;20171;-84
2023/09/22 01:35:49;;;;;;;15.37;5.90;;;;;;;-141.97;71.59;47565.22;5004694;28;20225;-85
2023/09/22 01:38:25;;;;;;;10.67;5.87;;;;;;;-141.97;71.50;47640.16;4996335;28;20175;-84
2023/09/22 01:40:50;;;;;;;11.20;6.17;;;;;;;-141.97;72.26;47695.91;4993897;28;20155;-85
2023/09/22 01:43:19;;;;;;;14.17;7.60;;;;;;;-141.97;74.34;47553.69;4991200;28;20195;-85
2023/09/22 01:45:44;;;;;;;15.53;7.20;;;;;;;-141.97;74.22;47519.06;5023966;28;20180;-85
2023/09/22 01:49:20;;;;;;;15.43;7.33;;;;;;;-141.97;73.90;47526.75;4992337;28;20209;-85
2023/09/22 01:51:45;;;;;;;13.90;7.77;;;;;;;-141.97;74.14;47330.72;5008902;28;20317;-85
2023/09/22 01:54:10;;;;;;;16.17;8.73;;;;;;;-141.97;74.90;47348.03;5009209;28;20355;-84
2023/09/22 01:56:35;;;;;;;15.37;7.43;;;;;;;-141.97;75.35;47492.16;5009926;28;20568;-85
2023/09/22 01:59:01;;;;;;;14.00;7.63;;;;;;;-141.97;75.30;47555.59;5029284;28;20190;-86
2023/09/22 02:01:26;;;;;;;16.40;7.80;;;;;;;-141.97;76.32;47438.34;5018623;28;20238;-85
2023/09/22 02:03:52;;;;;;;12.43;7.07;;;;;;;-141.97;76.25;47476.78;5010031;28;20166;-85
2023/09/22 02:06:17;;;;;;;11.37;6.97;;;;;;;-141.97;76.14;47718.97;5009512;28;20187;-85
2023/09/22 02:08:43;;;;;;;11.00;6.40;;;;;;;-141.97;76.13;47478.72;4992929;28;20229;-85
2023/09/22 02:11:11;;;;;;;10.70;6.17;;;;;;;-141.97;75.84;47640.16;5008812;28;20171;-85
2023/09/22 02:13:37;;;;;;;12.07;6.40;;;;;;;-141.97;75.87;47461.41;5009193;28;20222;-85
2023/09/22 02:16:03;;;;;;;11.17;6.20;;;;;;;-141.97;75.55;47421.06;5009608;28;20252;-85
2023/09/22 02:18:28;;;;;;;12.80;6.00;;;;;;;-141.97;76.62;47561.38;5000238;28;20238;-85
2023/09/22 02:20:54;;;;;;;13.43;6.10;;;;;;;-141.97;77.00;47503.69;5021063;28;20201;-85
2023/09/22 02:23:20;;;;;;;11.30;5.60;;;;;;;-141.97;76.81;47538.28;5004523;28;20285;-85
2023/09/22 02:25:45;;;;;;;12.30;6.30;;;;;;;-141.97;76.70;47576.75;5015501;28;20186;-85
2023/09/22 02:28:10;;;;;;;10.70;6.63;;;;;;;-141.97;76.79;47380.69;4990511;28;20590;-85
2023/09/22 02:30:37;;;;;;;12.57;6.30;;;;;;;-141.97;76.63;47365.31;4992070;28;20186;-86
2023/09/22 02:33:03;;;;;;;10.70;6.27;;;;;;;-141.97;76.78;47657.47;5006819;28;20610;-86
2023/09/22 02:35:29;;;;;;;9.47;5.40;;;;;;;-141.97;76.49;47584.44;4990100;28;20194;-85
2023/09/22 02:37:54;;;;;;;10.60;5.87;;;;;;;-141.97;76.28;47665.16;4991907;28;20171;-85
2023/09/22 02:40:20;;;;;;;11.20;6.20;;;;;;;-141.97;76.26;47538.28;4991470;28;20170;-86
2023/09/22 02:42:45;;;;;;;12.53;5.83;;;;;;;-141.97;75.92;47768.94;4989072;28;20656;-85
2023/09/22 02:45:11;;;;;;;10.60;6.00;;;;;;;-141.97;76.04;47547.91;4989726;28;20237;-85
2023/09/22 02:47:40;;;;;;;12.70;6.17;;;;;;;-141.97;76.08;47553.69;4990086;28;20195;-85
2023/09/22 02:50:10;;;;;;;12.20;6.10;;;;;;;-141.97;75.70;47447.97;4991137;28;20191;-85
2023/09/22 02:52:38;;;;;;;19.47;7.73;;;;;;;-141.97;75.65;47672.84;4989937;28;20221;-86
2023/09/22 02:55:05;;;;;;;16.37;7.23;;;;;;;-141.97;75.40;47480.63;5006141;28;20591;-85
2023/09/22 02:57:30;;;;;;;13.67;7.00;;;;;;;-141.97;75.56;47563.28;4990330;28;20198;-86
2023/09/22 02:59:56;;;;;;;18.83;6.73;;;;;;;-141.97;75.51;47736.28;4997470;28;20296;-85
2023/09/22 03:02:21;;;;;;;16.30;7.27;;;;;;;-141.97;75.18;47513.31;5006405;28;20159;-86
2023/09/22 03:04:47;;;;;;;14.17;7.00;;;;;;;-141.97;75.56;47426.81;4991923;28;20640;-86
2023/09/22 03:07:12;;;;;;;17.97;7.03;;;;;;;-141.97;76.16;47405.69;4993453;28;20196;-86
2023/09/22 03:09:38;;;;;;;14.93;6.90;;;;;;;-141.97;75.88;47572.91;5004607;28;20625;-84
2023/09/22 03:12:04;;;;;;;16.23;7.30;;;;;;;-141.97;75.75;47638.25;5008784;28;20231;-85
2023/09/22 03:14:29;;;;;;;17.53;7.60;;;;;;;-141.97;75.67;47522.91;5001526;28;20183;-85
2023/09/22 03:16:56;;;;;;;17.00;7.17;;;;;;;-141.97;75.93;47578.66;5007739;28;20549;-85
2023/09/22 03:19:21;;;;;;;19.60;7.50;;;;;;;-141.97;76.48;47519.06;5023036;28;20255;-85
2023/09/22 03:21:46;;;;;;;20.23;7.40;;;;;;;-141.97;76.88;47542.16;5006953;28;20203;-85
2023/09/22 03:24:12;;;;;;;18.83;7.90;;;;;;;-141.97;77.09;47745.88;4995088;28;20179;-85
2023/09/22 03:26:38;;;;;;;18.13;7.27;;;;;;;-141.97;76.79;47411.44;4994008;28;20612;-85
2023/09/22 03:29:04;;;;;;;16.47;7.17;;;;;;;-141.97;76.73;47530.59;4995524;28;20187;-85
2023/09/22 03:31:29;;;;;;;21.40;7.80;;;;;;;-141.97;76.89;47511.38;5014744;28;20261;-85
2023/09/22 03:33:55;;;;;;;17.00;7.57;;;;;;;-141.97;77.68;47369.16;5009421;28;20246;-85
2023/09/22 03:36:20;;;;;;;20.23;8.20;;;;;;;-141.97;78.39;47599.81;4997875;28;20207;-86
2023/09/22 03:38:47;;;;;;;19.23;7.97;;;;;;;-141.97;78.65;47553.69;5038605;28;20198;-85
2023/09/22 03:41:14;;;;;;;23.90;8.13;;;;;;;-141.97;78.71;47497.94;5003696;28;20231;-84
2023/09/22 03:43:39;;;;;;;13.73;7.70;;;;;;;-141.97;78.19;47507.53;4999870;28;20187;-84
2023/09/22 03:46:05;;;;;;;17.00;8.47;;;;;;;-141.97;78.16;47476.78;4997562;28;20519;-85
2023/09/22 03:48:30;;;;;;;19.37;8.43;;;;;;;-141.97;78.08;47565.22;4998386;28;20579;-86
2023/09/22 03:50:55;;;;;;;16.03;7.73;;;;;;;-141.97;78.13;47438.34;4993899;28;20573;-86
2023/09/22 03:53:22;;;;;;;23.70;8.10;;;;;;;-141.97;77.84;47599.81;4993114;28;20225;-84
2023/09/22 03:55:48;;;;;;;24.13;9.90;;;;;;;-141.97;77.62;47496.00;4993358;28;20178;-86
2023/09/22 03:58:14;;;;;;;19.90;9.20;;;;;;;-141.97;77.70;47780.47;4993251;28;20168;-85
2023/09/22 04:00:40;;;;;;;14.50;8.43;;;;;;;-141.97;78.16;47599.81;5000374;28;20267;-87
2023/09/22 04:03:09;;;;;;;15.90;8.70;;;;;;;-141.97;78.90;47415.28;4993056;28;20223;-85
2023/09/22 04:05:37;;;;;;;19.67;9.80;;;;;;;-141.97;79.65;47484.47;4994842;28;20248;-85
2023/09/22 04:08:03;;;;;;;17.80;9.20;;;;;;;-141.97;80.42;47588.28;4993129;28;20660;-85
2023/09/22 04:10:28;;;;;;;21.20;10.17;;;;;;;-141.97;80.53;47555.59;4993618;28;20163;-84
2023/09/22 04:12:54;;;;;;;17.77;9.53;;;;;;;-141.97;80.38;47663.22;5024740;28;20382;-85
2023/09/22 04:15:19;;;;;;;20.90;9.63;;;;;;;-141.97;80.31;47736.28;4994780;28;20265;-85
2023/09/22 04:17:46;;;;;;;16.40;9.57;;;;;;;-141.97;80.25;47734.34;4994298;28;20559;-85
2023/09/22 04:20:12;;;;;;;18.63;9.73;;;;;;;-141.97;79.63;47595.97;4993243;28;20167;-85
2023/09/22 04:22:38;;;;;;;18.90;10.00;;;;;;;-141.97;80.18;47565.22;4994248;28;20754;-85
2023/09/22 04:25:11;;;;;;;16.93;10.07;;;;;;;-141.97;80.18;47507.53;4994327;28;20178;-85
2023/09/22 04:27:43;;;;;;;22.97;10.37;;;;;;;-141.97;80.52;47522.91;4992323;28;20617;-85
2023/09/22 04:30:12;;;;;;;15.90;10.00;;;;;;;-141.97;80.88;47461.41;5008699;28;20183;-85
2023/09/22 04:32:38;;;;;;;24.37;10.13;;;;;;;-141.97;80.79;47738.19;4992686;28;20266;-85
2023/09/22 04:35:06;;;;;;;16.17;9.23;;;;;;;-141.97;80.38;47722.81;4991776;28;20175;-84
2023/09/22 04:37:32;;;;;;;22.70;10.00;;;;;;;-141.97;79.52;47486.41;5008735;28;20176;-85
2023/09/22 04:39:58;;;;;;;25.27;10.73;;;;;;;-141.97;78.96;47484.47;5025252;28;20274;-84
2023/09/22 04:42:24;;;;;;;22.03;11.17;;;;;;;-141.97;79.13;47649.78;4993612;28;20243;-85
2023/09/22 04:44:53;;;;;;;27.03;11.33;;;;;;;-141.97;79.20;47770.88;4993668;28;20179;-85
2023/09/22 04:47:18;;;;;;;26.87;11.43;;;;;;;-141.97;78.82;47532.53;4992558;28;20203;-86
2023/09/22 04:49:44;;;;;;;20.93;10.13;;;;;;;-141.97;78.04;47488.31;5008103;28;20658;-85
2023/09/22 04:52:10;;;;;;;25.27;10.17;;;;;;;-141.97;77.80;47453.72;4991411;28;20269;-85
2023/09/22 04:54:36;;;;;;;22.47;10.60;;;;;;;-141.97;77.81;47534.44;4992093;28;20589;-85
2023/09/22 04:57:02;;;;;;;22.43;11.30;;;;;;;-141.97;77.65;47580.59;4993134;28;20182;-85
2023/09/22 04:59:28;;;;;;;24.13;10.40;;;;;;;-141.97;77.87;47515.22;4985224;28;20168;-85
2023/09/22 05:01:53;;;;;;;22.07;9.87;;;;;;;-141.97;79.41;47626.72;5008968;28;20171;-83
2023/09/22 05:04:19;;;;;;;19.17;9.87;;;;;;;-141.97;79.97;47488.31;5008435;28;20183;-86
2023/09/22 05:06:44;;;;;;;19.33;10.17;;;;;;;-141.97;81.43;47469.09;4992442;28;20267;-84
2023/09/22 05:09:10;;;;;;;18.23;9.60;;;;;;;-141.97;80.73;47590.19;4993298;28;20654;-86
2023/09/22 05:11:36;;;;;;;21.80;9.40;;;;;;;-141.97;79.75;47580.59;4994113;28;20205;-85
2023/09/22 05:14:03;;;;;;;21.67;9.93;;;;;;;-141.97;78.56;47461.41;4993954;28;20557;-85
2023/09/22 05:16:29;;;;;;;28.33;11.50;;;;;;;-141.97;77.35;47743.97;4992719;28;20526;-85
2023/09/22 05:18:54;;;;;;;25.83;9.70;;;;;;;-141.97;76.28;47759.34;4992369;28;20175;-86
2023/09/22 05:21:20;;;;;;;25.00;10.23;;;;;;;-141.97;75.76;47499.84;4992137;28;20222;-86
2023/09/22 05:23:46;;;;;;;21.87;11.43;;;;;;;-141.97;75.99;47688.22;5024791;28;20282;-86
2023/09/22 05:26:12;;;;;;;29.20;11.90;;;;;;;-141.97;75.60;47524.84;5024957;28;20168;-86
2023/09/22 05:28:38;;;;;;;31.23;11.00;;;;;;;-141.97;75.85;47717.06;4992354;28;20203;-85
2023/09/22 05:31:05;;;;;;;37.30;10.70;;;;;;;-141.97;75.27;47699.75;4993436;28;20266;-86
2023/09/22 05:33:33;;;;;;;23.17;10.43;;;;;;;-141.97;75.18;47459.50;4992477;28;20270;-85
2023/09/22 05:35:59;;;;;;;32.67;12.20;;;;;;;-141.97;74.29;47692.06;4993075;28;20263;-85
2023/09/22 05:38:24;;;;;;;29.10;11.83;;;;;;;-141.97;74.22;47513.31;4990982;28;20186;-85
2023/09/22 05:40:50;;;;;;;36.43;13.13;;;;;;;-141.97;74.06;47421.06;4991872;28;20167;-85
2023/09/22 05:43:15;;;;;;;63.93;42.13;;;;;;;-141.97;73.65;47684.38;4991791;28;20286;-86
2023/09/22 05:45:41;;;;;;;162.87;110.53;;;;;;;-141.97;72.93;47499.84;4998698;28;20183;-84
2023/09/22 05:48:10;;;;;;;133.13;86.40;;;;;;;-141.97;72.31;47553.69;5017461;28;20230;-87
2023/09/22 05:50:36;;;;;;;45.20;27.30;;;;;;;-141.97;71.89;47492.16;5014832;28;20179;-86
2023/09/22 05:53:07;;;;;;;23.47;12.37;;;;;;;-141.97;71.34;47578.66;5014741;28;20195;-82
2023/09/22 05:55:33;;;;;;;22.30;11.83;;;;;;;-141.97;71.87;47567.13;5000101;28;20159;-85
2023/09/22 05:57:59;;;;;;;18.93;10.60;;;;;;;-141.97;71.57;47569.06;4992563;28;20179;-85
2023/09/22 06:00:30;;;;;;;22.40;11.47;;;;;;;-141.97;70.99;47392.22;4983451;28;20292;-84
2023/09/22 06:02:56;;;;;;;29.47;12.53;;;;;;;-141.97;70.76;47426.81;4991732;28;20683;-86
2023/09/22 06:05:22;;;;;;;27.17;11.77;;;;;;;-141.97;70.39;47757.41;4991778;28;20254;-86
2023/09/22 06:07:49;;;;;;;29.33;12.33;;;;;;;-141.97;69.68;47765.09;5005885;28;20222;-86
2023/09/22 06:10:15;;;;;;;25.87;11.37;;;;;;;-141.97;68.94;47542.16;4990833;28;20654;-86
2023/09/22 06:12:40;;;;;;;26.03;11.43;;;;;;;-141.97;68.27;47649.78;4999828;28;20310;-86
2023/09/22 06:15:07;;;;;;;24.83;11.50;;;;;;;-141.97;67.61;47407.59;5017030;28;20190;-86
2023/09/22 06:17:34;;;;;;;26.10;11.97;;;;;;;-141.97;67.38;47559.44;5034612;28;20163;-85
2023/09/22 06:20:07;;;;;;;25.47;11.13;;;;;;;-141.97;66.60;47709.38;5025987;28;20175;-86
2023/09/22 06:22:33;;;;;;;22.73;11.90;;;;;;;-141.97;65.12;47672.84;4992663;28;20182;-85
2023/09/22 06:24:58;;;;;;;21.00;11.10;;;;;;;-141.97;64.06;47553.69;4992721;28;20175;-85
2023/09/22 06:27:24;;;;;;;25.20;11.40;;;;;;;-141.97;62.76;47542.16;4992199;28;20191;-85
2023/09/22 06:29:49;;;;;;;18.87;10.30;;;;;;;-141.97;62.15;47530.59;4995042;28;20179;-85
2023/09/22 06:32:14;;;;;;;17.03;10.33;;;;;;;-141.97;61.13;47569.06;5011158;28;20167;-86
2023/09/22 06:34:40;;;;;;;22.13;10.30;;;;;;;-141.97;60.70;47572.91;5030663;28;20179;-87
2023/09/22 06:37:05;;;;;;;17.20;9.43;;;;;;;-141.97;59.89;47688.22;4990250;28;20199;-86
2023/09/22 06:39:31;;;;;;;14.20;8.47;;;;;;;-141.97;59.15;47407.59;5006333;28;20584;-87
2023/09/22 06:41:56;;;;;;;16.63;8.70;;;;;;;-141.97;58.99;47526.75;4991846;28;20163;-86
2023/09/22 06:44:22;;;;;;;13.73;9.30;;;;;;;-141.97;58.09;47765.09;4991080;28;20542;-87
2023/09/22 06:46:49;;;;;;;16.33;8.83;;;;;;;-141.97;57.80;47442.19;4994506;28;20624;-88
2023/09/22 06:49:15;;;;;;;11.60;7.80;;;;;;;-141.97;57.00;47745.88;5004206;28;20314;-86
2023/09/22 06:51:41;;;;;;;14.00;8.17;;;;;;;-141.97;56.78;47526.75;5007450;28;20155;-84
2023/09/22 06:54:06;;;;;;;12.90;7.53;;;;;;;-141.97;56.34;47619.03;5002079;28;20262;-86
2023/09/22 06:56:35;;;;;;;15.83;8.10;;;;;;;-141.97;55.88;47540.22;4992076;28;20190;-87
2023/09/22 06:59:00;;;;;;;13.73;8.30;;;;;;;-141.97;55.81;47353.78;5022755;28;20163;-85
2023/09/22 07:01:25;;;;;;;15.07;8.60;;;;;;;-141.97;55.66;47499.84;4982912;28;20243;-87
2023/09/22 07:03:51;;;;;;;15.60;7.80;;;;;;;-141.97;54.95;47620.94;4990739;28;20258;-86
2023/09/22 07:06:16;;;;;;;14.37;7.77;;;;;;;-141.97;54.31;47549.84;5023360;28;20217;-87
2023/09/22 07:08:44;;;;;;;15.07;7.87;;;;;;;-141.97;53.16;47505.63;4991612;28;20195;-86
2023/09/22 07:11:10;;;;;;;15.13;8.30;;;;;;;-141.97;53.08;47494.09;4991673;28;20221;-86
2023/09/22 07:13:37;;;;;;;12.57;7.80;;;;;;;-141.97;53.48;47519.06;4991081;28;20219;-86
2023/09/22 07:16:03;;;;;;;13.80;7.90;;;;;;;-141.97;53.15;47718.97;4991120;28;20190;-86
2023/09/22 07:18:28;;;;;;;16.17;8.43;;;;;;;-141.97;53.08;47488.31;5006315;28;20168;-86
2023/09/22 07:20:54;;;;;;;17.97;8.50;;;;;;;-141.97;52.69;47511.38;4993661;28;20180;-86
2023/09/22 07:23:21;;;;;;;14.00;7.77;;;;;;;-141.97;53.20;47453.72;4994200;28;20214;-87
2023/09/22 07:26:00;;;;;;;13.57;7.23;;;;;;;-141.97;52.72;47718.97;4991092;28;20655;-86
2023/09/22 07:28:26;;;;;;;10.70;7.23;;;;;;;-141.97;52.63;47557.53;5010984;28;20583;-86
2023/09/22 07:30:52;;;;;;;13.00;7.63;;;;;;;-141.97;52.46;47709.38;5029088;28;20174;-87
2023/09/22 07:33:18;;;;;;;11.17;7.10;;;;;;;-141.97;52.76;47463.34;4990943;28;20637;-86
2023/09/22 07:35:46;;;;;;;12.53;7.37;;;;;;;-141.97;52.03;47273.06;4991260;28;20254;-86
2023/09/22 07:38:11;;;;;;;15.03;7.33;;;;;;;-141.97;51.78;47536.38;5006034;28;20211;-85
2023/09/22 07:40:37;;;;;;;13.13;7.63;;;;;;;-141.97;51.22;47447.97;4991071;28;20674;-91
2023/09/22 07:43:02;;;;;;;16.00;7.90;;;;;;;-141.97;49.83;47415.28;5022917;28;20232;-85
2023/09/22 07:45:28;;;;;;;12.82;7.45;;;;;;;-141.97;50.00;47522.91;4990675;28;20174;-86
2023/09/22 07:47:54;;;;;;;11.60;7.35;;;;;;;-141.97;49.61;47334.56;4991086;28;20202;-86
2023/09/22 07:50:20;;;;;;;11.88;7.80;;;;;;;-141.97;49.77;47486.41;4989821;28;20388;-86
2023/09/22 07:52:46;;;;;;;13.13;7.78;;;;;;;-141.97;49.24;47342.25;4990778;28;20178;-88
2023/09/22 07:55:14;;;;;;;14.48;8.43;;;;;;;-141.97;48.87;47422.97;4996971;28;20227;-89
2023/09/22 07:57:40;;;;;;;16.13;8.15;;;;;;;-141.97;48.26;47371.09;5006668;28;20435;-87
2023/09/22 08:00:10;;;;;;;11.73;7.80;;;;;;;-141.97;48.50;47311.50;5002010;28;20208;-86
2023/09/22 08:02:35;;;;;;;11.60;7.47;;;;;;;-141.97;48.06;47469.09;5018007;28;20168;-88
2023/09/22 08:05:01;;;;;;;15.52;7.90;;;;;;;-141.97;47.82;47438.34;4994651;28;20176;-87
2023/09/22 08:07:27;;;;;;;12.85;8.07;;;;;;;-141.97;47.49;47717.06;4993717;28;20190;-88
2023/09/22 08:09:53;;;;;;;15.00;9.90;;;;;;;-141.97;47.32;47292.28;5002105;28;20173;-88
2023/09/22 08:12:18;;;;;;;12.20;7.70;;;;;;;-141.97;47.09;47672.84;5000761;28;20231;-88
2023/09/22 08:14:45;;;;;;;13.88;7.68;;;;;;;-141.97;46.82;47476.78;5003592;28;20257;-89
2023/09/22 08:17:10;;;;;;;13.55;7.13;;;;;;;-141.97;47.53;47349.94;5000939;28;20574;-88
2023/09/22 08:19:36;;;;;;;14.82;7.68;;;;;;;-141.97;46.39;47384.53;4994778;28;20163;-88
2023/09/22 08:22:02;;;;;;;13.57;8.30;;;;;;;-141.97;46.05;47472.94;5026527;28;20179;-88
2023/09/22 08:24:27;;;;;;;10.40;7.85;;;;;;;-141.97;45.81;47659.38;5004486;28;20164;-88
2023/09/22 08:26:53;;;;;;;12.40;7.55;;;;;;;-141.97;44.80;47455.66;5010191;28;20168;-88
2023/09/22 08:29:18;;;;;;;12.30;6.88;;;;;;;-141.97;45.35;47248.09;4996925;28;20317;-86
2023/09/22 08:31:44;;;;;;;16.38;7.10;;;;;;;-141.97;46.00;47311.50;5009169;28;20201;-88
2023/09/22 08:34:11;;;;;;;12.02;7.05;;;;;;;-141.97;46.87;47307.66;4993029;28;20700;-89
2023/09/22 08:36:36;;;;;;;13.13;7.22;;;;;;;-141.97;46.31;47457.56;4993348;28;20166;-88
2023/09/22 08:39:02;;;;;;;10.18;7.03;;;;;;;-141.97;46.07;47449.88;4994265;28;20153;-89
2023/09/22 08:41:31;;;;;;;17.35;6.82;;;;;;;-141.97;45.24;47532.53;4993880;28;20170;-89
2023/09/22 08:43:58;;;;;;;11.15;7.22;;;;;;;-141.97;44.52;47338.41;4996634;28;20540;-87
2023/09/22 08:46:24;;;;;;;13.00;7.75;;;;;;;-141.97;43.99;47353.78;4994568;28;20708;-88
2023/09/22 08:48:51;;;;;;;11.85;7.22;;;;;;;-141.97;43.87;47398.00;4994263;28;20199;-88
2023/09/22 08:51:17;;;;;;;10.60;7.03;;;;;;;-141.97;43.47;47419.13;4993408;28;20167;-87
2023/09/22 08:53:43;;;;;;;10.77;7.07;;;;;;;-141.97;43.97;47611.34;4994841;28;20167;-88
2023/09/22 08:56:09;;;;;;;12.02;7.20;;;;;;;-141.97;43.29;47230.78;4994877;28;20163;-88
2023/09/22 08:58:35;;;;;;;12.30;6.85;;;;;;;-141.97;43.42;47146.22;4994390;28;20545;-89
2023/09/22 09:01:02;;;;;;;11.60;7.03;;;;;;;-141.97;43.41;47622.88;5025624;28;20174;-89
2023/09/22 09:03:28;;;;;;;13.02;7.32;;;;;;;-141.97;42.47;47469.09;4993383;28;20185;-88
2023/09/22 09:06:06;;;;;;;15.20;6.65;;;;;;;-141.97;41.24;47417.22;4994672;28;20163;-88
2023/09/22 09:08:31;;;;;;;10.88;7.47;;;;;;;-141.97;41.77;47323.03;5024967;28;20191;-89
2023/09/22 09:11:05;;;;;;;10.80;6.65;;;;;;;-141.97;41.26;47184.66;4992361;28;20180;-88
2023/09/22 09:13:31;;;;;;;11.02;7.13;;;;;;;-141.97;41.75;47424.91;4993037;28;20301;-89
2023/09/22 09:16:01;;;;;;;15.55;7.47;;;;;;;-141.97;42.43;47607.50;4995993;28;20174;-88
2023/09/22 09:18:26;;;;;;;13.48;7.03;;;;;;;-141.97;41.99;47311.50;5026061;28;20160;-89
2023/09/22 09:21:09;;;;;;;13.07;7.30;;;;;;;-141.97;42.18;47396.06;4992363;28;20182;-87
2023/09/22 09:23:35;;;;;;;16.33;7.30;;;;;;;-141.97;41.62;47446.03;4993256;28;20665;-87
2023/09/22 09:26:01;;;;;;;16.00;7.15;;;;;;;-141.97;41.76;47426.81;4991811;28;20274;-88
2023/09/22 09:28:26;;;;;;;14.20;7.20;;;;;;;-141.97;41.02;47692.06;4993310;28;20270;-88
2023/09/22 09:30:58;;;;;;;12.63;7.40;;;;;;;-141.97;41.03;47415.28;4992745;28;20910;-87
2023/09/22 09:33:23;;;;;;;16.30;7.28;;;;;;;-141.97;40.71;47386.47;4992908;28;20182;-88
2023/09/22 09:35:49;;;;;;;11.63;7.75;;;;;;;-141.97;41.33;47401.84;4993334;28;20742;-89
2023/09/22 09:38:16;;;;;;;10.85;7.78;;;;;;;-141.97;41.10;47657.47;5004074;28;20172;-89
2023/09/22 09:40:42;;;;;;;11.85;7.25;;;;;;;-141.97;42.20;47311.50;5006508;28;20170;-87
2023/09/22 09:43:12;;;;;;;12.95;7.18;;;;;;;-141.97;42.16;47428.75;5002518;28;20171;-88
2023/09/22 09:45:46;;;;;;;12.55;7.60;;;;;;;-141.97;41.66;47457.56;5009337;28;20170;-87
2023/09/22 09:48:16;;;;;;;12.05;7.30;;;;;;;-141.97;41.67;47569.06;4991669;28;20198;-87
2023/09/22 09:50:51;;;;;;;15.73;7.60;;;;;;;-141.97;41.33;47307.66;4993496;28;20212;-88
2023/09/22 09:53:34;;;;;;;18.85;7.90;;;;;;;-141.97;40.57;47403.75;4993231;28;20168;-87
2023/09/22 09:56:02;;;;;;;12.48;7.70;;;;;;;-141.97;40.10;47411.44;4992168;28;20245;-89
2023/09/22 09:58:32;;;;;;;16.10;6.88;;;;;;;-141.97;39.88;47353.78;4991417;28;20171;-88
2023/09/22 10:00:59;;;;;;;11.43;6.65;;;;;;;-141.97;39.49;47269.22;4993117;28;20682;-89
2023/09/22 10:03:26;;;;;;;12.00;7.30;;;;;;;-141.97;39.24;47353.78;4999538;28;20175;-88
2023/09/22 10:05:52;;;;;;;14.77;6.82;;;;;;;-141.97;40.85;47430.66;5004057;28;20177;-88
2023/09/22 10:08:20;;;;;;;12.95;7.18;;;;;;;-141.97;40.10;47365.31;5000390;28;20220;-88
2023/09/22 10:10:48;;;;;;;11.98;6.85;;;;;;;-141.97;40.60;47642.09;5003044;28;20158;-88
2023/09/22 10:13:14;;;;;;;12.18;6.70;;;;;;;-141.97;40.02;47688.22;4999230;28;20296;-87
2023/09/22 10:15:56;;;;;;;10.02;6.35;;;;;;;-141.97;39.04;47374.94;5007253;28;20639;-89
2023/09/22 10:18:23;;;;;;;13.27;7.00;;;;;;;-141.97;38.34;47388.38;4997138;28;20237;-89
2023/09/22 10:20:49;;;;;;;11.40;6.63;;;;;;;-141.97;38.49;47250.00;4998025;28;20175;-88
2023/09/22 10:23:17;;;;;;;11.23;6.68;;;;;;;-141.97;38.87;47555.59;4992148;28;20545;-89
2023/09/22 10:25:43;;;;;;;12.27;7.07;;;;;;;-141.97;38.62;47411.44;4991656;28;20167;-89
2023/09/22 10:28:10;;;;;;;12.35;6.78;;;;;;;-141.97;37.93;47630.56;5007392;28;20605;-90
2023/09/22 10:30:45;;;;;;;12.18;6.82;;;;;;;-141.97;38.30;47384.53;4991245;28;20167;-89
2023/09/22 10:33:22;;;;;;;11.70;6.40;;;;;;;-141.97;38.58;47349.94;4989900;28;20179;-89
2023/09/22 10:35:49;;;;;;;9.65;6.40;;;;;;;-141.97;38.00;47296.13;4992202;28;20152;-90
2023/09/22 10:38:15;;;;;;;9.57;6.45;;;;;;;-141.97;37.59;47357.63;4990703;28;20163;-89
2023/09/22 10:41:14;;;;;;;7.85;6.03;;;;;;;-141.97;37.98;47369.16;4990646;28;20225;-89
2023/09/22 10:43:56;;;;;;;10.50;6.63;;;;;;;-141.97;38.29;47349.94;4989062;28;20233;-90
2023/09/22 10:46:22;;;;;;;9.80;6.55;;;;;;;-141.97;37.63;47303.81;4974060;28;20194;-88
2023/09/22 10:48:47;;;;;;;10.35;6.15;;;;;;;-141.97;37.77;47565.22;4990527;28;20718;-88
2023/09/22 10:51:15;;;;;;;11.43;6.60;;;;;;;-141.97;38.17;47253.84;4973896;28;20179;-88
2023/09/22 10:53:40;;;;;;;8.85;5.70;;;;;;;-141.97;37.89;47567.13;4989537;28;20195;-88
2023/09/22 10:56:06;;;;;;;10.60;6.40;;;;;;;-141.97;37.51;47373.00;4973620;28;20179;-87
2023/09/22 10:58:31;;;;;;;14.43;6.70;;;;;;;-141.97;37.07;47609.41;4989871;28;20163;-88
2023/09/22 11:01:04;;;;;;;10.68;6.45;;;;;;;-141.97;37.04;47607.50;4992379;28;20183;-88
2023/09/22 11:03:32;;;;;;;11.32;6.47;;;;;;;-141.97;36.59;47165.44;4992255;28;20182;-89
2023/09/22 11:06:00;;;;;;;10.20;5.90;;;;;;;-141.97;36.50;47597.88;5010623;28;20187;-88
2023/09/22 11:08:26;;;;;;;8.95;5.82;;;;;;;-141.97;36.19;47557.53;4990158;28;20194;-88